createdAt,value
2017-11-04T00:01:46.353Z,73.50
2017-11-04T00:04:13.961Z,73.50
2017-11-04T00:06:41.605Z,73.70
2017-11-04T00:09:09.977Z,73.60
2017-11-04T00:11:38.343Z,73.70
2017-11-04T00:14:05.979Z,73.60
2017-11-04T00:16:33.584Z,73.50
2017-11-04T00:19:01.959Z,73.70
2017-11-04T00:21:30.361Z,73.60
2017-11-04T00:23:57.965Z,73.60
2017-11-04T00:26:25.573Z,73.70
2017-11-04T00:28:53.208Z,73.90
2017-11-04T00:31:20.810Z,73.60
2017-11-04T00:33:48.422Z,73.60
2017-11-04T00:36:16.046Z,73.50
2017-11-04T00:38:43.661Z,73.50
2017-11-04T00:41:12.054Z,73.70
2017-11-04T00:43:39.653Z,73.50
2017-11-04T00:46:07.259Z,73.80
2017-11-04T00:48:35.666Z,73.80
2017-11-04T00:51:03.284Z,73.60
2017-11-04T00:53:30.892Z,73.70
2017-11-04T00:55:58.524Z,73.80
2017-11-04T00:58:26.885Z,73.60
2017-11-04T01:00:54.509Z,73.50
2017-11-04T01:03:22.106Z,73.50
2017-11-04T01:05:49.717Z,73.70
2017-11-04T01:08:17.348Z,73.40
2017-11-04T01:10:45.717Z,73.50
2017-11-04T01:13:14.115Z,73.50
2017-11-04T01:15:41.716Z,73.50
2017-11-04T01:18:09.317Z,73.40
2017-11-04T01:20:37.721Z,73.50
2017-11-04T01:23:05.313Z,73.40
2017-11-04T01:25:32.902Z,73.40
2017-11-04T01:28:00.533Z,73.40
2017-11-04T01:30:28.143Z,73.30
2017-11-04T01:32:56.512Z,73.30
2017-11-04T01:35:24.134Z,73.30
2017-11-04T01:37:51.734Z,73.30
2017-11-04T01:40:20.132Z,73.30
2017-11-04T01:42:47.734Z,73.20
2017-11-04T01:45:15.358Z,73.30
2017-11-04T01:47:42.965Z,73.40
2017-11-04T01:50:10.609Z,73.40
2017-11-04T01:52:38.233Z,73.30
2017-11-04T01:55:06.625Z,73.30
2017-11-04T01:57:34.233Z,73.30
2017-11-04T02:00:01.857Z,73.20
2017-11-04T02:02:29.455Z,73.20
2017-11-04T02:04:57.081Z,73.30
2017-11-04T02:07:24.705Z,73.30
2017-11-04T02:09:53.097Z,73.40
2017-11-04T02:12:20.697Z,73.30
2017-11-04T02:14:48.317Z,73.50
2017-11-04T02:17:16.679Z,73.30
2017-11-04T02:19:45.105Z,73.40
2017-11-04T02:22:12.729Z,73.40
2017-11-04T02:24:41.121Z,73.40
2017-11-04T02:27:08.721Z,73.30
2017-11-04T02:29:36.345Z,73.20
2017-11-04T02:32:03.957Z,73.20
2017-11-04T02:34:31.598Z,73.20
2017-11-04T02:36:59.193Z,73.20
2017-11-04T02:39:26.784Z,73.40
2017-11-04T02:41:54.422Z,73.30
2017-11-04T02:44:22.795Z,73.20
2017-11-04T02:46:50.389Z,73.10
2017-11-04T02:49:18.017Z,73.20
2017-11-04T02:51:46.409Z,73.20
2017-11-04T02:54:14.801Z,73.20
2017-11-04T02:56:43.292Z,73.20
2017-11-04T02:59:11.213Z,73.00
2017-11-04T03:01:38.808Z,73.10
2017-11-04T03:04:07.181Z,73.10
2017-11-04T03:06:35.583Z,72.90
2017-11-04T03:09:03.209Z,72.80
2017-11-04T03:11:31.609Z,72.90
2017-11-04T03:13:59.234Z,72.90
2017-11-04T03:16:26.833Z,73.00
2017-11-04T03:18:54.457Z,73.00
2017-11-04T03:21:22.057Z,72.90
2017-11-04T03:23:49.678Z,72.60
2017-11-04T03:26:17.284Z,72.60
2017-11-04T03:28:44.932Z,72.80
2017-11-04T03:31:13.296Z,72.60
2017-11-04T03:33:41.685Z,72.40
2017-11-04T03:36:10.100Z,72.40
2017-11-04T03:38:37.714Z,72.30
2017-11-04T03:41:06.150Z,72.60
2017-11-04T03:43:33.758Z,72.50
2017-11-04T03:46:02.158Z,72.30
2017-11-04T03:48:29.762Z,72.30
2017-11-04T03:50:57.415Z,72.40
2017-11-04T03:53:25.049Z,72.40
2017-11-04T03:55:52.645Z,72.10
2017-11-04T03:58:20.286Z,72.30
2017-11-04T04:00:47.911Z,72.30
2017-11-04T04:03:16.446Z,72.30
2017-11-04T04:05:44.093Z,72.30
2017-11-04T04:08:11.729Z,72.10
2017-11-04T04:10:39.360Z,72.70
2017-11-04T04:13:06.993Z,72.20
2017-11-04T04:15:34.626Z,72.10
2017-11-04T04:18:02.233Z,71.80
2017-11-04T04:20:29.869Z,71.90
2017-11-04T04:22:57.482Z,72.00
2017-11-04T04:25:25.861Z,72.20
2017-11-04T04:27:54.257Z,71.90
2017-11-04T04:30:21.857Z,71.90
2017-11-04T04:32:49.497Z,71.60
2017-11-04T04:35:17.670Z,71.90
2017-11-04T04:37:45.280Z,72.00
2017-11-04T04:40:13.686Z,72.00
2017-11-04T04:42:41.302Z,72.00
2017-11-04T04:45:08.931Z,72.10
2017-11-04T04:47:36.537Z,71.70
2017-11-04T04:50:04.181Z,71.90
2017-11-04T04:52:31.785Z,71.80
2017-11-04T04:54:59.381Z,71.80
2017-11-04T04:57:27.012Z,71.90
2017-11-04T04:59:54.626Z,71.80
2017-11-04T05:02:22.253Z,71.90
2017-11-04T05:04:49.850Z,71.60
2017-11-04T05:07:17.459Z,72.00
2017-11-04T05:09:45.086Z,71.90
2017-11-04T05:12:12.690Z,71.90
2017-11-04T05:14:40.317Z,72.70
2017-11-04T05:17:08.681Z,71.80
2017-11-04T05:19:36.281Z,71.70
2017-11-04T05:22:03.918Z,71.90
2017-11-04T05:24:32.277Z,72.10
2017-11-04T05:26:59.921Z,71.90
2017-11-04T05:29:27.571Z,71.80
2017-11-04T05:31:55.181Z,71.60
2017-11-04T05:34:23.566Z,71.90
2017-11-04T05:36:51.934Z,72.10
2017-11-04T05:39:20.328Z,71.90
2017-11-04T05:41:47.940Z,71.70
2017-11-04T05:44:15.582Z,71.90
2017-11-04T05:46:43.197Z,71.90
2017-11-04T05:49:11.569Z,71.80
2017-11-04T05:51:39.965Z,71.70
2017-11-04T05:54:09.169Z,71.60
2017-11-04T05:56:36.810Z,71.60
2017-11-04T05:59:05.194Z,71.90
2017-11-04T06:01:33.564Z,71.50
2017-11-04T06:04:01.207Z,71.30
2017-11-04T06:06:28.811Z,71.90
2017-11-04T06:08:56.471Z,71.90
2017-11-04T06:11:24.069Z,72.20
2017-11-04T06:13:51.665Z,71.60
2017-11-04T06:16:19.294Z,71.70
2017-11-04T06:18:46.914Z,71.60
2017-11-04T06:21:14.553Z,71.90
2017-11-04T06:23:42.921Z,72.00
2017-11-04T06:26:10.513Z,71.90
2017-11-04T06:28:38.149Z,71.80
2017-11-04T06:31:05.750Z,72.10
2017-11-04T06:33:33.380Z,72.10
2017-11-04T06:36:01.740Z,71.90
2017-11-04T06:38:29.401Z,71.90
2017-11-04T06:40:57.019Z,71.90
2017-11-04T06:43:24.617Z,71.70
2017-11-04T06:45:52.253Z,71.90
2017-11-04T06:48:19.851Z,72.00
2017-11-04T06:50:47.478Z,72.00
2017-11-04T06:53:15.073Z,72.20
2017-11-04T06:55:42.681Z,72.60
2017-11-04T06:58:10.302Z,72.10
2017-11-04T07:00:38.679Z,72.20
2017-11-04T07:03:07.089Z,72.90
2017-11-04T07:05:34.685Z,72.10
2017-11-04T07:08:02.287Z,72.10
2017-11-04T07:10:30.692Z,72.50
2017-11-04T07:12:58.298Z,72.30
2017-11-04T07:15:25.917Z,72.10
2017-11-04T07:17:53.517Z,72.50
2017-11-04T07:20:21.153Z,72.60
2017-11-04T07:22:48.749Z,72.60
2017-11-04T07:25:16.605Z,72.40
2017-11-04T07:27:44.241Z,72.60
2017-11-04T07:30:11.845Z,72.60
2017-11-04T07:32:39.466Z,72.70
2017-11-04T07:35:07.075Z,73.30
2017-11-04T07:37:35.473Z,72.90
2017-11-04T07:40:03.089Z,72.70
2017-11-04T07:42:30.734Z,73.00
2017-11-04T07:44:58.342Z,72.90
2017-11-04T07:47:26.704Z,73.00
2017-11-04T07:49:54.329Z,72.90
2017-11-04T07:52:21.928Z,74.10
2017-11-04T07:54:49.563Z,73.00
2017-11-04T07:57:17.164Z,74.10
2017-11-04T07:59:45.529Z,73.40
2017-11-04T08:02:13.925Z,73.20
2017-11-04T08:04:42.296Z,73.30
2017-11-04T08:07:10.696Z,73.30
2017-11-04T08:09:38.302Z,73.00
2017-11-04T08:12:05.898Z,73.10
2017-11-04T08:14:34.293Z,73.50
2017-11-04T08:17:01.893Z,73.40
2017-11-04T08:19:29.532Z,73.40
2017-11-04T08:21:57.125Z,73.50
2017-11-04T08:24:24.733Z,73.50
2017-11-04T08:26:52.361Z,73.20
2017-11-04T08:29:19.960Z,73.50
2017-11-04T08:31:47.608Z,73.40
2017-11-04T08:34:15.976Z,73.60
2017-11-04T08:36:44.336Z,73.70
2017-11-04T08:39:12.726Z,73.70
2017-11-04T08:41:40.342Z,73.80
2017-11-04T08:44:07.976Z,74.40
2017-11-04T08:46:35.578Z,73.60
2017-11-04T08:49:03.177Z,73.50
2017-11-04T08:51:34.431Z,73.80
2017-11-04T08:54:02.056Z,73.70
2017-11-04T08:56:29.680Z,73.80
2017-11-04T08:58:57.277Z,73.80
2017-11-04T09:01:24.973Z,73.60
2017-11-04T09:03:55.196Z,73.90
2017-11-04T09:06:23.565Z,73.90
2017-11-04T09:08:51.956Z,73.80
2017-11-04T09:11:20.334Z,73.90
2017-11-04T09:13:48.727Z,74.10
2017-11-04T09:16:16.332Z,74.00
2017-11-04T09:18:43.970Z,74.10
2017-11-04T09:21:11.580Z,74.20
2017-11-04T09:23:39.185Z,74.10
2017-11-04T09:26:06.824Z,74.10
2017-11-04T09:28:34.426Z,74.30
2017-11-04T09:31:02.054Z,74.20
2017-11-04T09:33:29.650Z,74.20
2017-11-04T09:35:57.258Z,74.40
2017-11-04T09:38:25.653Z,74.40
2017-11-04T09:40:53.253Z,74.40
2017-11-04T09:43:20.874Z,74.20
2017-11-04T09:45:48.477Z,74.20
2017-11-04T09:48:16.102Z,74.50
2017-11-04T09:50:43.702Z,74.60
2017-11-04T09:53:11.309Z,74.40
2017-11-04T09:55:39.731Z,74.60
2017-11-04T09:58:07.326Z,74.60
2017-11-04T10:00:34.961Z,74.80
2017-11-04T10:03:02.569Z,74.40
2017-11-04T10:05:30.973Z,74.40
2017-11-04T10:07:58.588Z,74.30
2017-11-04T10:10:26.194Z,74.50
2017-11-04T10:12:53.833Z,74.70
2017-11-04T10:15:21.441Z,74.40
2017-11-04T10:17:49.080Z,74.60
2017-11-04T10:20:17.457Z,74.80
2017-11-04T10:22:45.092Z,74.70
2017-11-04T10:25:13.453Z,74.60
2017-11-04T10:27:41.897Z,74.50
2017-11-04T10:30:09.553Z,74.50
2017-11-04T10:32:38.005Z,74.50
2017-11-04T10:35:05.613Z,74.40
2017-11-04T10:37:33.212Z,74.50
2017-11-04T10:40:01.630Z,74.70
2017-11-04T10:42:41.276Z,74.70
2017-11-04T10:45:08.921Z,74.40
2017-11-04T10:47:36.530Z,74.60
2017-11-04T10:50:04.130Z,74.80
2017-11-04T10:52:31.756Z,74.70
2017-11-04T10:54:59.353Z,74.80
2017-11-04T10:57:26.982Z,74.90
2017-11-04T10:59:54.589Z,74.50
2017-11-04T11:02:22.221Z,74.90
2017-11-04T11:04:50.594Z,74.80
2017-11-04T11:07:18.974Z,75.00
2017-11-04T11:09:47.373Z,74.80
2017-11-04T11:12:15.137Z,74.60
2017-11-04T11:14:42.760Z,74.60
2017-11-04T11:17:11.928Z,74.50
2017-11-04T11:19:39.566Z,74.50
2017-11-04T11:22:07.166Z,74.50
2017-11-04T11:24:35.530Z,75.30
2017-11-04T11:27:03.165Z,74.50
2017-11-04T11:29:30.765Z,74.50
2017-11-04T11:31:58.389Z,74.20
2017-11-04T11:34:25.996Z,74.50
2017-11-04T11:36:53.594Z,74.30
2017-11-04T11:39:21.223Z,74.20
2017-11-04T11:41:48.843Z,73.90
2017-11-04T11:44:16.490Z,74.00
2017-11-04T11:46:44.133Z,74.30
2017-11-04T11:49:11.733Z,74.30
2017-11-04T11:51:39.386Z,74.10
2017-11-04T11:54:07.008Z,74.00
2017-11-04T11:56:35.398Z,73.60
2017-11-04T11:59:02.993Z,73.60
2017-11-04T12:01:30.632Z,74.00
2017-11-04T12:03:58.311Z,73.60
2017-11-04T12:06:25.947Z,74.10
2017-11-04T12:08:53.560Z,73.90
2017-11-04T12:11:21.171Z,73.80
2017-11-04T12:13:48.856Z,73.90
2017-11-04T12:16:16.450Z,73.70
2017-11-04T12:18:44.078Z,74.10
2017-11-04T12:21:11.672Z,73.90
2017-11-04T12:23:39.286Z,74.10
2017-11-04T12:26:06.921Z,73.90
2017-11-04T12:28:35.300Z,74.00
2017-11-04T12:31:03.693Z,73.80
2017-11-04T12:33:31.294Z,73.80
2017-11-04T12:35:58.924Z,73.40
2017-11-04T12:38:26.517Z,73.70
2017-11-04T12:40:54.381Z,74.00
2017-11-04T12:43:22.012Z,74.30
2017-11-04T12:45:49.613Z,74.00
2017-11-04T12:48:17.370Z,74.10
2017-11-04T12:50:44.981Z,73.90
2017-11-04T12:53:12.617Z,73.50
2017-11-04T12:55:41.004Z,73.70
2017-11-04T12:58:09.415Z,74.00
2017-11-04T13:00:37.042Z,73.90
2017-11-04T13:03:05.474Z,73.60
2017-11-04T13:05:33.125Z,73.40
2017-11-04T13:08:00.722Z,73.60
2017-11-04T13:10:28.317Z,73.70
2017-11-04T13:12:55.951Z,73.50
2017-11-04T13:15:23.543Z,73.70
2017-11-04T13:17:51.179Z,73.60
2017-11-04T13:20:18.777Z,73.50
2017-11-04T13:22:46.369Z,74.00
2017-11-04T13:25:13.989Z,73.40
2017-11-04T13:27:41.610Z,73.30
2017-11-04T13:30:09.237Z,73.20
2017-11-04T13:32:36.839Z,73.40
2017-11-04T13:35:04.469Z,73.50
2017-11-04T13:37:32.064Z,74.10
2017-11-04T13:39:59.656Z,73.50
2017-11-04T13:42:27.286Z,73.50
2017-11-04T13:44:54.892Z,73.40
2017-11-04T13:47:22.533Z,73.40
2017-11-04T13:49:50.151Z,73.30
2017-11-04T13:52:18.553Z,73.40
2017-11-04T13:54:46.950Z,73.50
2017-11-04T13:57:14.548Z,73.30
2017-11-04T13:59:42.189Z,73.30
2017-11-04T14:02:09.796Z,73.40
2017-11-04T14:04:37.405Z,73.30
2017-11-04T14:07:05.048Z,73.40
2017-11-04T14:09:33.466Z,73.30
2017-11-04T14:12:01.101Z,73.20
2017-11-04T14:14:28.706Z,73.40
2017-11-04T14:16:56.351Z,73.40
2017-11-04T14:19:24.006Z,73.50
2017-11-04T14:21:51.609Z,73.40
2017-11-04T14:24:19.238Z,73.50
2017-11-04T14:26:46.829Z,73.40
2017-11-04T14:29:14.454Z,73.30
2017-11-04T14:31:42.077Z,73.20
2017-11-04T14:34:10.441Z,73.40
2017-11-04T14:36:38.850Z,73.30
2017-11-04T14:39:06.450Z,73.20
2017-11-04T14:41:34.082Z,73.00
2017-11-04T14:44:01.682Z,73.10
2017-11-04T14:46:29.288Z,73.30
2017-11-04T14:48:56.922Z,73.10
2017-11-04T14:51:25.293Z,73.20
2017-11-04T14:53:53.228Z,73.10
2017-11-04T14:56:20.828Z,73.30
2017-11-04T14:58:49.205Z,73.20
2017-11-04T15:01:16.834Z,73.10
2017-11-04T15:03:44.431Z,74.20
2017-11-04T15:06:12.841Z,73.30
2017-11-04T15:08:40.441Z,73.30
2017-11-04T15:11:08.040Z,73.30
2017-11-04T15:13:36.425Z,73.00
2017-11-04T15:16:04.800Z,73.00
2017-11-04T15:18:33.190Z,72.90
2017-11-04T15:21:00.816Z,72.70
2017-11-04T15:23:28.451Z,72.90
2017-11-04T15:25:56.065Z,73.20
2017-11-04T15:28:24.480Z,73.10
2017-11-04T15:30:52.101Z,73.00
2017-11-04T15:33:20.469Z,73.20
2017-11-04T15:35:48.898Z,73.10
2017-11-04T15:38:16.497Z,72.90
2017-11-04T15:40:44.120Z,73.10
2017-11-04T15:43:11.740Z,73.20
2017-11-04T15:45:40.105Z,73.20
2017-11-04T15:48:08.494Z,73.50
2017-11-04T15:50:36.864Z,73.30
2017-11-04T15:53:04.504Z,73.20
2017-11-04T15:55:32.106Z,73.30
2017-11-04T15:58:00.465Z,73.30
2017-11-04T16:00:28.900Z,73.30
2017-11-04T16:02:56.559Z,73.20
2017-11-04T16:05:24.183Z,73.30
2017-11-04T16:07:52.542Z,73.20
2017-11-04T16:10:21.205Z,73.20
2017-11-04T16:12:49.073Z,73.20
2017-11-04T16:15:16.947Z,73.30
2017-11-04T16:17:45.356Z,73.40
2017-11-04T16:20:13.905Z,73.30
2017-11-04T16:22:41.874Z,73.30
2017-11-04T16:25:09.736Z,73.40
2017-11-04T16:27:37.597Z,73.40
2017-11-04T16:30:05.576Z,73.30
2017-11-04T16:32:33.435Z,73.40
2017-11-04T16:35:01.407Z,73.30
2017-11-04T16:37:29.277Z,73.30
2017-11-04T16:39:57.240Z,73.40
2017-11-04T16:42:25.112Z,73.30
2017-11-04T16:44:52.994Z,73.50
2017-11-04T16:47:20.941Z,73.40
2017-11-04T16:49:48.773Z,73.50
2017-11-04T16:52:16.788Z,73.40
2017-11-04T16:54:44.750Z,73.40
2017-11-04T16:57:12.618Z,73.50
2017-11-04T16:59:40.581Z,73.40
2017-11-04T17:02:08.454Z,73.40
2017-11-04T17:04:36.314Z,73.50
2017-11-04T17:07:04.291Z,73.30
2017-11-04T17:09:32.152Z,73.30
2017-11-04T17:12:00.023Z,73.40
2017-11-04T17:14:27.892Z,73.50
2017-11-04T17:16:58.156Z,73.60
2017-11-04T17:19:26.281Z,73.70
2017-11-04T17:21:54.159Z,73.60
2017-11-04T17:24:22.117Z,73.70
2017-11-04T17:26:49.983Z,73.70
2017-11-04T17:29:17.863Z,73.80
2017-11-04T17:31:45.821Z,73.60
2017-11-04T17:34:13.690Z,73.30
2017-11-04T17:36:41.666Z,73.50
2017-11-04T17:39:09.518Z,73.70
2017-11-04T17:41:37.393Z,73.60
2017-11-04T17:44:05.363Z,73.50
2017-11-04T17:46:33.231Z,73.60
2017-11-04T17:49:01.195Z,73.50
2017-11-04T17:51:29.067Z,73.30
2017-11-04T17:53:56.929Z,73.30
2017-11-04T17:56:24.792Z,73.50
2017-11-04T17:58:52.667Z,73.40
2017-11-04T18:01:22.279Z,73.50
2017-11-04T18:03:50.339Z,73.60
2017-11-04T18:06:18.206Z,73.30
2017-11-04T18:08:46.174Z,73.20
2017-11-04T18:11:14.045Z,73.30
2017-11-04T18:13:42.007Z,73.50
2017-11-04T18:16:09.884Z,73.30
2017-11-04T18:18:37.796Z,73.30
2017-11-04T18:21:05.721Z,73.50
2017-11-04T18:23:33.578Z,73.40
2017-11-04T18:26:01.445Z,73.30
2017-11-04T18:28:29.318Z,73.50
2017-11-04T18:30:57.186Z,73.50
2017-11-04T18:33:25.050Z,73.60
2017-11-04T18:35:53.027Z,73.50
2017-11-04T18:38:20.889Z,73.40
2017-11-04T18:40:48.850Z,73.50
2017-11-04T18:43:16.716Z,73.40
2017-11-04T18:45:44.552Z,73.40
2017-11-04T18:48:12.458Z,73.30
2017-11-04T18:50:41.860Z,73.40
2017-11-04T18:53:09.819Z,73.40
2017-11-04T18:55:37.697Z,73.40
2017-11-04T18:58:05.527Z,73.20
2017-11-04T19:00:33.423Z,73.40
2017-11-04T19:03:01.253Z,73.20
2017-11-04T19:05:29.154Z,73.30
2017-11-04T19:07:57.029Z,73.40
2017-11-04T19:10:24.894Z,73.40
2017-11-04T19:12:52.865Z,73.40
2017-11-04T19:15:20.727Z,73.50
2017-11-04T19:17:48.599Z,73.80
2017-11-04T19:20:16.565Z,73.60
2017-11-04T19:22:44.430Z,73.70
2017-11-04T19:25:12.399Z,73.80
2017-11-04T19:27:40.263Z,73.70
2017-11-04T19:30:08.137Z,73.80
2017-11-04T19:32:35.998Z,73.80
2017-11-04T19:35:03.973Z,73.80
2017-11-04T19:37:31.838Z,73.70
2017-11-04T19:39:59.809Z,73.80
2017-11-04T19:42:27.667Z,73.90
2017-11-04T19:44:58.192Z,73.90
2017-11-04T19:47:26.267Z,74.10
2017-11-04T19:49:54.143Z,74.10
2017-11-04T19:52:22.112Z,74.00
2017-11-04T19:54:49.977Z,74.00
2017-11-04T19:57:17.936Z,74.10
2017-11-04T19:59:45.811Z,74.00
2017-11-04T20:02:13.673Z,74.00
2017-11-04T20:04:41.545Z,74.00
2017-11-04T20:07:09.681Z,74.00
2017-11-04T20:09:38.371Z,74.00
2017-11-04T20:12:06.222Z,74.00
2017-11-04T20:14:34.137Z,74.10
2017-11-04T20:17:02.007Z,74.10
2017-11-04T20:19:29.969Z,74.20
2017-11-04T20:21:57.838Z,74.40
2017-11-04T20:24:25.806Z,74.20
2017-11-04T20:26:53.676Z,74.50
2017-11-04T20:29:21.545Z,74.30
2017-11-04T20:31:49.468Z,74.40
2017-11-04T20:34:17.380Z,74.50
2017-11-04T20:36:45.350Z,74.40
2017-11-04T20:39:13.217Z,74.40
2017-11-04T20:41:41.186Z,74.20
2017-11-04T20:44:09.050Z,74.60
2017-11-04T20:46:36.916Z,74.40
2017-11-04T20:49:04.518Z,74.40
2017-11-04T20:51:32.885Z,74.50
2017-11-04T20:54:01.537Z,74.40
2017-11-04T20:56:29.410Z,74.40
2017-11-04T20:58:57.375Z,74.30
2017-11-04T21:01:25.245Z,74.60
2017-11-04T21:03:53.212Z,75.60
2017-11-04T21:06:21.070Z,74.50
2017-11-04T21:08:48.941Z,74.60
2017-11-04T21:11:16.806Z,74.60
2017-11-04T21:13:44.679Z,74.40
2017-11-04T21:16:12.652Z,74.60
2017-11-04T21:18:40.467Z,74.50
2017-11-04T21:21:10.031Z,74.60
2017-11-04T21:23:39.964Z,74.70
2017-11-04T21:26:07.704Z,74.80
2017-11-04T21:28:35.323Z,74.90
2017-11-04T21:31:02.938Z,74.80
2017-11-04T21:33:30.583Z,74.80
2017-11-04T21:35:58.187Z,74.90
2017-11-04T21:38:26.554Z,75.20
2017-11-04T21:40:55.049Z,75.40
2017-11-04T21:43:22.863Z,75.30
2017-11-04T21:45:50.495Z,75.20
2017-11-04T21:48:18.101Z,75.30
2017-11-04T21:50:45.761Z,75.30
2017-11-04T21:53:14.160Z,75.40
2017-11-04T21:55:42.526Z,75.70
2017-11-04T21:58:10.974Z,76.50
2017-11-04T22:00:38.579Z,75.60
2017-11-04T22:03:06.978Z,75.50
2017-11-04T22:05:34.673Z,75.50
2017-11-04T22:08:02.298Z,75.50
2017-11-04T22:10:29.936Z,75.70
2017-11-04T22:12:57.537Z,75.80
2017-11-04T22:15:25.195Z,75.90
2017-11-04T22:17:52.810Z,76.10
2017-11-04T22:20:20.412Z,75.90
2017-11-04T22:22:48.037Z,76.00
2017-11-04T22:25:15.644Z,75.90
2017-11-04T22:27:43.293Z,76.20
2017-11-04T22:30:10.904Z,76.30
2017-11-04T22:32:38.519Z,76.30
2017-11-04T22:35:06.149Z,76.30
2017-11-04T22:37:34.524Z,76.50
2017-11-04T22:40:02.146Z,76.50
2017-11-04T22:42:29.897Z,76.40
2017-11-04T22:44:57.528Z,76.60
2017-11-04T22:47:25.903Z,76.60
2017-11-04T22:49:54.279Z,76.90
2017-11-04T22:52:22.682Z,76.90
2017-11-04T22:54:50.302Z,76.80
2017-11-04T22:57:18.721Z,76.90
2017-11-04T22:59:46.329Z,76.80
2017-11-04T23:02:13.925Z,77.00
2017-11-04T23:04:42.334Z,77.10
2017-11-04T23:07:09.937Z,77.00
2017-11-04T23:09:37.570Z,77.00
2017-11-04T23:12:05.175Z,77.00
2017-11-04T23:14:33.593Z,76.90
2017-11-04T23:17:01.201Z,76.90
2017-11-04T23:19:28.809Z,76.70
2017-11-04T23:21:56.436Z,76.80
2017-11-04T23:24:24.808Z,77.30
2017-11-04T23:26:52.451Z,77.30
2017-11-04T23:29:20.049Z,77.30
2017-11-04T23:31:47.753Z,77.20
2017-11-04T23:34:15.384Z,77.30
2017-11-04T23:36:42.983Z,77.30
2017-11-04T23:39:10.621Z,77.20
2017-11-04T23:41:38.225Z,77.40
2017-11-04T23:44:05.823Z,77.30
2017-11-04T23:46:33.473Z,77.50
2017-11-04T23:49:01.841Z,77.50
2017-11-04T23:51:30.237Z,77.40
2017-11-04T23:53:57.841Z,77.40
2017-11-04T23:56:25.445Z,77.40
2017-11-04T23:58:53.847Z,77.50
